sensor_id;sensor_type;location;lat;lon;timestamp;temperature;humidity
52656;SHT85;35474;51.032;6.998;2023-01-09T00:00:59;7.84;93.70
52656;SHT85;35474;51.032;6.998;2023-01-09T00:03:26;7.84;93.89
52656;SHT85;35474;51.032;6.998;2023-01-09T00:05:52;7.75;93.21
52656;SHT85;35474;51.032;6.998;2023-01-09T00:08:18;7.75;93.32
52656;SHT85;35474;51.032;6.998;2023-01-09T00:10:45;7.67;93.15
52656;SHT85;35474;51.032;6.998;2023-01-09T00:13:14;7.58;93.01
52656;SHT85;35474;51.032;6.998;2023-01-09T00:15:40;7.60;92.45
52656;SHT85;35474;51.032;6.998;2023-01-09T00:18:07;7.57;92.25
52656;SHT85;35474;51.032;6.998;2023-01-09T00:20:34;7.47;92.23
52656;SHT85;35474;51.032;6.998;2023-01-09T00:23:00;7.48;92.60
52656;SHT85;35474;51.032;6.998;2023-01-09T00:25:27;7.42;92.75
52656;SHT85;35474;51.032;6.998;2023-01-09T00:27:54;7.47;93.07
52656;SHT85;35474;51.032;6.998;2023-01-09T00:30:20;7.48;93.16
52656;SHT85;35474;51.032;6.998;2023-01-09T00:32:46;7.51;93.33
52656;SHT85;35474;51.032;6.998;2023-01-09T00:35:14;7.48;93.06
52656;SHT85;35474;51.032;6.998;2023-01-09T00:37:42;7.48;93.14
52656;SHT85;35474;51.032;6.998;2023-01-09T00:40:09;7.46;93.42
52656;SHT85;35474;51.032;6.998;2023-01-09T00:42:38;7.46;93.54
52656;SHT85;35474;51.032;6.998;2023-01-09T00:45:10;7.39;93.46
52656;SHT85;35474;51.032;6.998;2023-01-09T00:47:42;7.30;93.09
52656;SHT85;35474;51.032;6.998;2023-01-09T00:50:15;7.37;93.17
52656;SHT85;35474;51.032;6.998;2023-01-09T00:52:46;7.31;93.01
52656;SHT85;35474;51.032;6.998;2023-01-09T00:55:14;7.28;93.14
52656;SHT85;35474;51.032;6.998;2023-01-09T01:00:34;7.37;93.18
52656;SHT85;35474;51.032;6.998;2023-01-09T01:03:01;7.33;93.15
52656;SHT85;35474;51.032;6.998;2023-01-09T01:05:27;7.28;92.78
52656;SHT85;35474;51.032;6.998;2023-01-09T01:08:13;7.34;92.11
52656;SHT85;35474;51.032;6.998;2023-01-09T01:10:41;7.37;91.93
52656;SHT85;35474;51.032;6.998;2023-01-09T01:13:09;7.44;92.17
52656;SHT85;35474;51.032;6.998;2023-01-09T01:15:40;7.42;91.94
52656;SHT85;35474;51.032;6.998;2023-01-09T01:18:08;7.43;91.63
52656;SHT85;35474;51.032;6.998;2023-01-09T01:20:41;7.48;91.10
52656;SHT85;35474;51.032;6.998;2023-01-09T01:23:08;7.40;90.15
52656;SHT85;35474;51.032;6.998;2023-01-09T01:25:39;7.51;88.97
52656;SHT85;35474;51.032;6.998;2023-01-09T01:28:06;7.54;88.35
52656;SHT85;35474;51.032;6.998;2023-01-09T01:30:37;7.57;88.54
52656;SHT85;35474;51.032;6.998;2023-01-09T01:33:05;7.57;88.31
52656;SHT85;35474;51.032;6.998;2023-01-09T01:35:33;7.51;88.09
52656;SHT85;35474;51.032;6.998;2023-01-09T01:38:00;7.53;88.16
52656;SHT85;35474;51.032;6.998;2023-01-09T01:40:28;7.57;88.54
52656;SHT85;35474;51.032;6.998;2023-01-09T01:42:55;7.55;88.33
52656;SHT85;35474;51.032;6.998;2023-01-09T01:45:24;7.54;87.95
52656;SHT85;35474;51.032;6.998;2023-01-09T01:48:05;7.54;87.84
52656;SHT85;35474;51.032;6.998;2023-01-09T01:50:45;7.50;86.98
52656;SHT85;35474;51.032;6.998;2023-01-09T01:53:23;7.53;87.34
52656;SHT85;35474;51.032;6.998;2023-01-09T01:59:10;7.51;87.65
52656;SHT85;35474;51.032;6.998;2023-01-09T02:01:44;7.53;87.24
52656;SHT85;35474;51.032;6.998;2023-01-09T02:04:14;7.55;86.91
52656;SHT85;35474;51.032;6.998;2023-01-09T02:06:41;7.60;86.61
52656;SHT85;35474;51.032;6.998;2023-01-09T02:09:11;7.54;86.74
52656;SHT85;35474;51.032;6.998;2023-01-09T02:11:44;7.53;86.19
52656;SHT85;35474;51.032;6.998;2023-01-09T02:14:11;7.65;86.70
52656;SHT85;35474;51.032;6.998;2023-01-09T02:16:45;7.57;86.31
52656;SHT85;35474;51.032;6.998;2023-01-09T02:19:48;7.63;86.10
52656;SHT85;35474;51.032;6.998;2023-01-09T02:31:18;7.63;85.86
52656;SHT85;35474;51.032;6.998;2023-01-09T02:33:56;7.70;85.64
52656;SHT85;35474;51.032;6.998;2023-01-09T02:36:28;7.64;85.92
52656;SHT85;35474;51.032;6.998;2023-01-09T02:44:24;7.57;86.25
52656;SHT85;35474;51.032;6.998;2023-01-09T02:47:00;7.53;86.19
52656;SHT85;35474;51.032;6.998;2023-01-09T02:49:32;7.46;86.60
52656;SHT85;35474;51.032;6.998;2023-01-09T02:54:57;7.67;86.40
52656;SHT85;35474;51.032;6.998;2023-01-09T03:00:18;7.89;84.48
52656;SHT85;35474;51.032;6.998;2023-01-09T03:03:10;7.98;84.11
52656;SHT85;35474;51.032;6.998;2023-01-09T03:09:01;8.01;83.15
52656;SHT85;35474;51.032;6.998;2023-01-09T03:11:33;8.06;83.31
52656;SHT85;35474;51.032;6.998;2023-01-09T03:14:07;7.99;83.97
52656;SHT85;35474;51.032;6.998;2023-01-09T03:16:38;8.02;83.57
52656;SHT85;35474;51.032;6.998;2023-01-09T03:19:07;7.96;84.09
52656;SHT85;35474;51.032;6.998;2023-01-09T03:21:38;7.99;84.08
52656;SHT85;35474;51.032;6.998;2023-01-09T03:24:06;7.91;84.28
52656;SHT85;35474;51.032;6.998;2023-01-09T03:26:32;7.82;84.67
52656;SHT85;35474;51.032;6.998;2023-01-09T03:28:59;7.70;84.56
52656;SHT85;35474;51.032;6.998;2023-01-09T03:31:26;7.60;85.22
52656;SHT85;35474;51.032;6.998;2023-01-09T03:33:52;7.64;85.42
52656;SHT85;35474;51.032;6.998;2023-01-09T03:36:19;7.50;85.64
52656;SHT85;35474;51.032;6.998;2023-01-09T03:38:47;7.55;85.26
52656;SHT85;35474;51.032;6.998;2023-01-09T03:41:14;7.71;83.43
52656;SHT85;35474;51.032;6.998;2023-01-09T03:43:40;7.81;82.51
52656;SHT85;35474;51.032;6.998;2023-01-09T03:46:07;7.84;82.04
52656;SHT85;35474;51.032;6.998;2023-01-09T03:48:35;7.79;82.30
52656;SHT85;35474;51.032;6.998;2023-01-09T03:51:01;7.74;82.15
52656;SHT85;35474;51.032;6.998;2023-01-09T03:53:28;7.68;82.11
52656;SHT85;35474;51.032;6.998;2023-01-09T03:55:55;7.61;82.17
52656;SHT85;35474;51.032;6.998;2023-01-09T03:58:22;7.65;82.67
52656;SHT85;35474;51.032;6.998;2023-01-09T04:00:49;7.54;82.54
52656;SHT85;35474;51.032;6.998;2023-01-09T04:03:18;7.34;83.72
52656;SHT85;35474;51.032;6.998;2023-01-09T04:05:46;7.26;84.26
52656;SHT85;35474;51.032;6.998;2023-01-09T04:08:15;7.12;84.35
52656;SHT85;35474;51.032;6.998;2023-01-09T04:10:45;7.12;83.92
52656;SHT85;35474;51.032;6.998;2023-01-09T04:13:13;7.10;83.56
52656;SHT85;35474;51.032;6.998;2023-01-09T04:15:39;7.06;84.14
52656;SHT85;35474;51.032;6.998;2023-01-09T04:18:06;6.96;84.12
52656;SHT85;35474;51.032;6.998;2023-01-09T04:20:33;7.02;83.55
52656;SHT85;35474;51.032;6.998;2023-01-09T04:23:00;7.07;83.27
52656;SHT85;35474;51.032;6.998;2023-01-09T04:25:27;7.07;83.25
52656;SHT85;35474;51.032;6.998;2023-01-09T04:27:53;7.02;83.32
52656;SHT85;35474;51.032;6.998;2023-01-09T04:30:20;6.95;83.48
52656;SHT85;35474;51.032;6.998;2023-01-09T04:32:46;6.85;83.88
52656;SHT85;35474;51.032;6.998;2023-01-09T04:35:13;6.78;84.20
52656;SHT85;35474;51.032;6.998;2023-01-09T04:37:39;6.75;84.41
52656;SHT85;35474;51.032;6.998;2023-01-09T04:40:06;6.72;84.49
52656;SHT85;35474;51.032;6.998;2023-01-09T04:42:37;6.65;84.13
52656;SHT85;35474;51.032;6.998;2023-01-09T04:45:04;6.71;84.09
52656;SHT85;35474;51.032;6.998;2023-01-09T04:47:32;6.65;84.25
52656;SHT85;35474;51.032;6.998;2023-01-09T04:49:59;6.68;83.97
52656;SHT85;35474;51.032;6.998;2023-01-09T04:52:26;6.78;83.70
52656;SHT85;35474;51.032;6.998;2023-01-09T04:54:53;6.79;83.62
52656;SHT85;35474;51.032;6.998;2023-01-09T04:57:19;6.81;83.37
52656;SHT85;35474;51.032;6.998;2023-01-09T04:59:46;6.81;83.71
52656;SHT85;35474;51.032;6.998;2023-01-09T05:02:12;6.74;83.98
52656;SHT85;35474;51.032;6.998;2023-01-09T05:04:39;6.74;84.43
52656;SHT85;35474;51.032;6.998;2023-01-09T05:07:06;6.67;84.97
52656;SHT85;35474;51.032;6.998;2023-01-09T05:09:32;6.69;84.95
52656;SHT85;35474;51.032;6.998;2023-01-09T05:11:59;6.69;84.63
52656;SHT85;35474;51.032;6.998;2023-01-09T05:14:27;6.82;84.15
52656;SHT85;35474;51.032;6.998;2023-01-09T05:16:53;6.84;84.22
52656;SHT85;35474;51.032;6.998;2023-01-09T05:19:20;6.81;84.37
52656;SHT85;35474;51.032;6.998;2023-01-09T05:21:46;6.82;84.33
52656;SHT85;35474;51.032;6.998;2023-01-09T05:24:13;6.82;84.39
52656;SHT85;35474;51.032;6.998;2023-01-09T05:26:39;6.86;83.34
52656;SHT85;35474;51.032;6.998;2023-01-09T05:29:06;6.95;83.03
52656;SHT85;35474;51.032;6.998;2023-01-09T05:31:32;6.97;82.62
52656;SHT85;35474;51.032;6.998;2023-01-09T05:33:59;7.06;80.96
52656;SHT85;35474;51.032;6.998;2023-01-09T05:36:26;7.20;80.63
52656;SHT85;35474;51.032;6.998;2023-01-09T05:38:53;7.23;80.14
52656;SHT85;35474;51.032;6.998;2023-01-09T05:41:19;7.30;79.38
52656;SHT85;35474;51.032;6.998;2023-01-09T05:43:48;7.27;79.73
52656;SHT85;35474;51.032;6.998;2023-01-09T05:46:15;7.31;79.24
52656;SHT85;35474;51.032;6.998;2023-01-09T05:48:41;7.33;78.62
52656;SHT85;35474;51.032;6.998;2023-01-09T05:51:10;7.37;78.16
52656;SHT85;35474;51.032;6.998;2023-01-09T05:53:36;7.47;78.49
52656;SHT85;35474;51.032;6.998;2023-01-09T05:56:03;7.39;78.57
52656;SHT85;35474;51.032;6.998;2023-01-09T05:58:30;7.40;78.26
52656;SHT85;35474;51.032;6.998;2023-01-09T06:00:57;7.43;78.56
52656;SHT85;35474;51.032;6.998;2023-01-09T06:03:24;7.46;78.51
52656;SHT85;35474;51.032;6.998;2023-01-09T06:05:51;7.33;78.43
52656;SHT85;35474;51.032;6.998;2023-01-09T06:08:17;7.47;77.90
52656;SHT85;35474;51.032;6.998;2023-01-09T06:10:44;7.50;78.41
52656;SHT85;35474;51.032;6.998;2023-01-09T06:13:12;7.44;78.39
52656;SHT85;35474;51.032;6.998;2023-01-09T06:15:38;7.42;78.53
52656;SHT85;35474;51.032;6.998;2023-01-09T06:18:05;7.33;78.82
52656;SHT85;35474;51.032;6.998;2023-01-09T06:20:32;7.44;78.47
52656;SHT85;35474;51.032;6.998;2023-01-09T06:25:40;7.40;78.60
52656;SHT85;35474;51.032;6.998;2023-01-09T06:28:07;7.44;79.00
52656;SHT85;35474;51.032;6.998;2023-01-09T06:30:34;7.47;78.39
52656;SHT85;35474;51.032;6.998;2023-01-09T06:33:00;7.48;78.71
52656;SHT85;35474;51.032;6.998;2023-01-09T06:35:27;7.50;78.27
52656;SHT85;35474;51.032;6.998;2023-01-09T06:37:53;7.55;78.41
52656;SHT85;35474;51.032;6.998;2023-01-09T06:40:20;7.57;78.28
52656;SHT85;35474;51.032;6.998;2023-01-09T06:42:46;7.54;78.34
52656;SHT85;35474;51.032;6.998;2023-01-09T06:45:14;7.53;78.42
52656;SHT85;35474;51.032;6.998;2023-01-09T06:47:42;7.55;78.25
52656;SHT85;35474;51.032;6.998;2023-01-09T06:50:08;7.58;78.51
52656;SHT85;35474;51.032;6.998;2023-01-09T06:52:36;7.60;78.33
52656;SHT85;35474;51.032;6.998;2023-01-09T06:55:02;7.63;78.66
52656;SHT85;35474;51.032;6.998;2023-01-09T06:57:29;7.63;78.65
52656;SHT85;35474;51.032;6.998;2023-01-09T06:59:55;7.67;78.45
52656;SHT85;35474;51.032;6.998;2023-01-09T07:02:22;7.65;78.70
52656;SHT85;35474;51.032;6.998;2023-01-09T07:04:49;7.65;78.99
52656;SHT85;35474;51.032;6.998;2023-01-09T07:07:15;7.64;79.02
52656;SHT85;35474;51.032;6.998;2023-01-09T07:09:43;7.63;79.30
52656;SHT85;35474;51.032;6.998;2023-01-09T07:12:09;7.68;79.11
52656;SHT85;35474;51.032;6.998;2023-01-09T07:14:36;7.60;79.53
52656;SHT85;35474;51.032;6.998;2023-01-09T07:17:02;7.57;79.84
52656;SHT85;35474;51.032;6.998;2023-01-09T07:19:28;7.58;79.84
52656;SHT85;35474;51.032;6.998;2023-01-09T07:21:55;7.61;80.08
52656;SHT85;35474;51.032;6.998;2023-01-09T07:24:21;7.63;79.88
52656;SHT85;35474;51.032;6.998;2023-01-09T07:26:48;7.63;80.09
52656;SHT85;35474;51.032;6.998;2023-01-09T07:32:34;7.58;80.22
52656;SHT85;35474;51.032;6.998;2023-01-09T07:35:01;7.58;80.40
52656;SHT85;35474;51.032;6.998;2023-01-09T07:37:28;7.64;80.20
52656;SHT85;35474;51.032;6.998;2023-01-09T07:39:54;7.63;80.24
52656;SHT85;35474;51.032;6.998;2023-01-09T07:42:20;7.65;80.20
52656;SHT85;35474;51.032;6.998;2023-01-09T07:44:47;7.64;80.29
52656;SHT85;35474;51.032;6.998;2023-01-09T07:47:14;7.61;80.50
52656;SHT85;35474;51.032;6.998;2023-01-09T07:49:41;7.64;80.64
52656;SHT85;35474;51.032;6.998;2023-01-09T07:52:07;7.60;80.67
52656;SHT85;35474;51.032;6.998;2023-01-09T07:54:34;7.67;80.74
52656;SHT85;35474;51.032;6.998;2023-01-09T07:57:01;7.61;80.74
52656;SHT85;35474;51.032;6.998;2023-01-09T07:59:28;7.64;80.61
52656;SHT85;35474;51.032;6.998;2023-01-09T08:01:55;7.65;80.73
52656;SHT85;35474;51.032;6.998;2023-01-09T08:04:21;7.61;80.83
52656;SHT85;35474;51.032;6.998;2023-01-09T08:06:48;7.64;80.98
52656;SHT85;35474;51.032;6.998;2023-01-09T08:09:15;7.58;81.24
52656;SHT85;35474;51.032;6.998;2023-01-09T08:11:41;7.58;81.39
52656;SHT85;35474;51.032;6.998;2023-01-09T08:14:08;7.54;81.72
52656;SHT85;35474;51.032;6.998;2023-01-09T08:16:34;7.55;81.90
52656;SHT85;35474;51.032;6.998;2023-01-09T08:19:01;7.58;81.64
52656;SHT85;35474;51.032;6.998;2023-01-09T08:21:27;7.64;81.63
52656;SHT85;35474;51.032;6.998;2023-01-09T08:23:53;7.61;81.90
52656;SHT85;35474;51.032;6.998;2023-01-09T08:26:20;7.64;82.05
52656;SHT85;35474;51.032;6.998;2023-01-09T08:28:51;7.61;82.07
52656;SHT85;35474;51.032;6.998;2023-01-09T08:31:18;7.60;82.22
52656;SHT85;35474;51.032;6.998;2023-01-09T08:33:44;7.60;82.45
52656;SHT85;35474;51.032;6.998;2023-01-09T08:36:11;7.63;82.13
52656;SHT85;35474;51.032;6.998;2023-01-09T08:38:37;7.64;81.71
52656;SHT85;35474;51.032;6.998;2023-01-09T08:41:04;7.74;81.69
52656;SHT85;35474;51.032;6.998;2023-01-09T08:43:50;7.81;81.32
52656;SHT85;35474;51.032;6.998;2023-01-09T08:46:36;7.85;81.10
52656;SHT85;35474;51.032;6.998;2023-01-09T08:49:21;7.88;80.65
52656;SHT85;35474;51.032;6.998;2023-01-09T08:51:47;7.92;80.45
52656;SHT85;35474;51.032;6.998;2023-01-09T08:54:14;7.92;80.69
52656;SHT85;35474;51.032;6.998;2023-01-09T08:56:40;7.98;80.09
52656;SHT85;35474;51.032;6.998;2023-01-09T08:59:08;7.88;80.98
52656;SHT85;35474;51.032;6.998;2023-01-09T09:01:35;7.77;81.86
52656;SHT85;35474;51.032;6.998;2023-01-09T09:04:01;7.77;82.60
52656;SHT85;35474;51.032;6.998;2023-01-09T09:06:30;7.65;83.72
52656;SHT85;35474;51.032;6.998;2023-01-09T09:08:58;7.60;84.04
52656;SHT85;35474;51.032;6.998;2023-01-09T09:11:32;7.60;84.10
52656;SHT85;35474;51.032;6.998;2023-01-09T09:13:59;7.53;85.04
52656;SHT85;35474;51.032;6.998;2023-01-09T09:16:26;7.51;85.51
52656;SHT85;35474;51.032;6.998;2023-01-09T09:18:53;7.48;85.48
52656;SHT85;35474;51.032;6.998;2023-01-09T09:21:19;7.46;86.05
52656;SHT85;35474;51.032;6.998;2023-01-09T09:23:46;7.33;87.37
52656;SHT85;35474;51.032;6.998;2023-01-09T09:26:12;7.26;88.16
52656;SHT85;35474;51.032;6.998;2023-01-09T09:28:39;7.24;88.69
52656;SHT85;35474;51.032;6.998;2023-01-09T09:31:05;7.22;89.26
52656;SHT85;35474;51.032;6.998;2023-01-09T09:33:32;7.09;90.01
52656;SHT85;35474;51.032;6.998;2023-01-09T09:35:59;7.10;90.24
52656;SHT85;35474;51.032;6.998;2023-01-09T09:38:25;7.09;90.13
52656;SHT85;35474;51.032;6.998;2023-01-09T09:43:52;7.16;90.56
52656;SHT85;35474;51.032;6.998;2023-01-09T09:49:44;7.22;90.21
52656;SHT85;35474;51.032;6.998;2023-01-09T09:55:28;7.23;89.99
52656;SHT85;35474;51.032;6.998;2023-01-09T09:57:59;7.28;89.81
52656;SHT85;35474;51.032;6.998;2023-01-09T10:00:29;7.35;89.53
52656;SHT85;35474;51.032;6.998;2023-01-09T10:03:02;7.39;89.67
52656;SHT85;35474;51.032;6.998;2023-01-09T10:05:36;7.35;89.23
52656;SHT85;35474;51.032;6.998;2023-01-09T10:11:25;7.58;88.10
52656;SHT85;35474;51.032;6.998;2023-01-09T10:13:57;7.67;86.78
52656;SHT85;35474;51.032;6.998;2023-01-09T10:19:59;7.89;85.65
52656;SHT85;35474;51.032;6.998;2023-01-09T10:30:49;8.43;81.98
52656;SHT85;35474;51.032;6.998;2023-01-09T10:33:27;8.64;80.74
52656;SHT85;35474;51.032;6.998;2023-01-09T10:39:11;8.81;80.53
52656;SHT85;35474;51.032;6.998;2023-01-09T10:41:53;8.82;78.90
52656;SHT85;35474;51.032;6.998;2023-01-09T10:44:27;8.88;78.11
52656;SHT85;35474;51.032;6.998;2023-01-09T10:47:01;8.94;78.61
52656;SHT85;35474;51.032;6.998;2023-01-09T10:49:37;8.94;77.15
52656;SHT85;35474;51.032;6.998;2023-01-09T10:52:14;8.92;76.55
52656;SHT85;35474;51.032;6.998;2023-01-09T10:54:45;9.05;77.03
52656;SHT85;35474;51.032;6.998;2023-01-09T10:59:57;8.98;75.71
52656;SHT85;35474;51.032;6.998;2023-01-09T11:02:25;8.94;76.06
52656;SHT85;35474;51.032;6.998;2023-01-09T11:04:54;8.95;76.31
52656;SHT85;35474;51.032;6.998;2023-01-09T11:07:25;9.00;76.29
52656;SHT85;35474;51.032;6.998;2023-01-09T11:12:33;8.92;76.24
52656;SHT85;35474;51.032;6.998;2023-01-09T11:17:43;9.00;75.99
52656;SHT85;35474;51.032;6.998;2023-01-09T11:20:32;8.91;75.91
52656;SHT85;35474;51.032;6.998;2023-01-09T11:22:57;8.88;76.37
52656;SHT85;35474;51.032;6.998;2023-01-09T11:25:25;8.94;76.34
52656;SHT85;35474;51.032;6.998;2023-01-09T11:30:26;8.98;76.32
52656;SHT85;35474;51.032;6.998;2023-01-09T11:32:54;8.95;75.80
52656;SHT85;35474;51.032;6.998;2023-01-09T11:35:24;9.02;76.04
52656;SHT85;35474;51.032;6.998;2023-01-09T11:38:21;8.91;75.88
52656;SHT85;35474;51.032;6.998;2023-01-09T11:40:54;8.95;75.60
52656;SHT85;35474;51.032;6.998;2023-01-09T11:46:05;9.04;75.10
52656;SHT85;35474;51.032;6.998;2023-01-09T11:48:34;8.89;74.87
52656;SHT85;35474;51.032;6.998;2023-01-09T11:51:04;8.89;75.36
52656;SHT85;35474;51.032;6.998;2023-01-09T11:53:50;8.98;75.19
52656;SHT85;35474;51.032;6.998;2023-01-09T11:56:38;8.97;74.66
52656;SHT85;35474;51.032;6.998;2023-01-09T11:59:19;8.92;74.73
52656;SHT85;35474;51.032;6.998;2023-01-09T12:10:42;9.19;74.73
52656;SHT85;35474;51.032;6.998;2023-01-09T12:13:24;9.10;73.76
52656;SHT85;35474;51.032;6.998;2023-01-09T12:16:37;9.23;74.26
52656;SHT85;35474;51.032;6.998;2023-01-09T12:19:26;9.07;74.22
52656;SHT85;35474;51.032;6.998;2023-01-09T12:25:12;9.00;73.81
52656;SHT85;35474;51.032;6.998;2023-01-09T12:28:23;9.05;73.56
52656;SHT85;35474;51.032;6.998;2023-01-09T12:36:58;8.70;74.73
52656;SHT85;35474;51.032;6.998;2023-01-09T12:48:12;8.47;75.93
52656;SHT85;35474;51.032;6.998;2023-01-09T12:50:58;8.46;76.56
52656;SHT85;35474;51.032;6.998;2023-01-09T12:53:42;8.50;76.59
52656;SHT85;35474;51.032;6.998;2023-01-09T12:56:20;8.49;76.83
52656;SHT85;35474;51.032;6.998;2023-01-09T12:58:55;8.43;76.19
52656;SHT85;35474;51.032;6.998;2023-01-09T13:01:30;8.50;76.47
52656;SHT85;35474;51.032;6.998;2023-01-09T13:07:03;8.63;75.69
52656;SHT85;35474;51.032;6.998;2023-01-09T13:09:38;8.64;76.01
52656;SHT85;35474;51.032;6.998;2023-01-09T13:12:15;8.70;75.83
52656;SHT85;35474;51.032;6.998;2023-01-09T13:14:54;8.65;75.57
52656;SHT85;35474;51.032;6.998;2023-01-09T13:17:35;8.64;75.61
52656;SHT85;35474;51.032;6.998;2023-01-09T13:20:16;8.70;75.85
52656;SHT85;35474;51.032;6.998;2023-01-09T13:22:48;8.59;75.76
52656;SHT85;35474;51.032;6.998;2023-01-09T13:27:45;8.54;76.14
52656;SHT85;35474;51.032;6.998;2023-01-09T13:30:45;8.50;76.31
52656;SHT85;35474;51.032;6.998;2023-01-09T13:33:20;8.54;76.32
52656;SHT85;35474;51.032;6.998;2023-01-09T13:35:57;8.54;76.21
52656;SHT85;35474;51.032;6.998;2023-01-09T13:38:26;8.54;76.68
52656;SHT85;35474;51.032;6.998;2023-01-09T13:43:52;8.49;76.77
52656;SHT85;35474;51.032;6.998;2023-01-09T13:46:21;8.56;77.03
52656;SHT85;35474;51.032;6.998;2023-01-09T13:48:48;8.56;76.89
52656;SHT85;35474;51.032;6.998;2023-01-09T13:54:01;8.57;76.97
52656;SHT85;35474;51.032;6.998;2023-01-09T13:56:28;8.57;77.24
52656;SHT85;35474;51.032;6.998;2023-01-09T13:58:56;8.56;77.27
52656;SHT85;35474;51.032;6.998;2023-01-09T14:06:40;8.65;76.90
52656;SHT85;35474;51.032;6.998;2023-01-09T14:09:11;8.63;76.01
52656;SHT85;35474;51.032;6.998;2023-01-09T14:11:44;8.65;75.86
52656;SHT85;35474;51.032;6.998;2023-01-09T14:14:21;8.64;75.81
52656;SHT85;35474;51.032;6.998;2023-01-09T14:16:52;8.61;75.71
52656;SHT85;35474;51.032;6.998;2023-01-09T14:19:28;8.71;75.63
52656;SHT85;35474;51.032;6.998;2023-01-09T14:21:58;8.59;75.39
52656;SHT85;35474;51.032;6.998;2023-01-09T14:26:56;8.61;75.19
52656;SHT85;35474;51.032;6.998;2023-01-09T14:34:53;8.50;75.06
52656;SHT85;35474;51.032;6.998;2023-01-09T14:37:24;8.50;75.43
52656;SHT85;35474;51.032;6.998;2023-01-09T14:39:53;8.46;75.42
52656;SHT85;35474;51.032;6.998;2023-01-09T14:42:22;8.47;75.04
52656;SHT85;35474;51.032;6.998;2023-01-09T14:47:47;8.37;75.85
52656;SHT85;35474;51.032;6.998;2023-01-09T14:53:03;8.29;75.89
52656;SHT85;35474;51.032;6.998;2023-01-09T14:58:24;8.29;76.04
52656;SHT85;35474;51.032;6.998;2023-01-09T15:01:17;8.34;75.81
52656;SHT85;35474;51.032;6.998;2023-01-09T15:03:54;8.47;75.75
52656;SHT85;35474;51.032;6.998;2023-01-09T15:06:27;8.50;75.68
52656;SHT85;35474;51.032;6.998;2023-01-09T15:09:03;8.47;75.64
52656;SHT85;35474;51.032;6.998;2023-01-09T15:11:33;8.50;75.53
52656;SHT85;35474;51.032;6.998;2023-01-09T15:14:04;8.52;75.68
52656;SHT85;35474;51.032;6.998;2023-01-09T15:16:31;8.42;75.54
52656;SHT85;35474;51.032;6.998;2023-01-09T15:18:59;8.43;75.84
52656;SHT85;35474;51.032;6.998;2023-01-09T15:21:29;8.49;75.99
52656;SHT85;35474;51.032;6.998;2023-01-09T15:24:19;8.44;76.24
52656;SHT85;35474;51.032;6.998;2023-01-09T15:26:51;8.44;76.20
52656;SHT85;35474;51.032;6.998;2023-01-09T15:29:19;8.42;76.53
52656;SHT85;35474;51.032;6.998;2023-01-09T15:31:47;8.39;76.55
52656;SHT85;35474;51.032;6.998;2023-01-09T15:34:19;8.34;76.44
52656;SHT85;35474;51.032;6.998;2023-01-09T15:36:47;8.33;76.86
52656;SHT85;35474;51.032;6.998;2023-01-09T15:39:20;8.37;76.62
52656;SHT85;35474;51.032;6.998;2023-01-09T15:41:50;8.40;76.81
52656;SHT85;35474;51.032;6.998;2023-01-09T15:44:36;8.33;76.93
52656;SHT85;35474;51.032;6.998;2023-01-09T15:47:06;8.36;76.90
52656;SHT85;35474;51.032;6.998;2023-01-09T15:49:37;8.28;76.62
52656;SHT85;35474;51.032;6.998;2023-01-09T15:52:04;8.28;76.81
52656;SHT85;35474;51.032;6.998;2023-01-09T15:54:38;8.19;77.01
52656;SHT85;35474;51.032;6.998;2023-01-09T15:59:50;8.15;77.21
52656;SHT85;35474;51.032;6.998;2023-01-09T16:02:21;8.15;76.98
52656;SHT85;35474;51.032;6.998;2023-01-09T16:05:08;8.07;77.35
52656;SHT85;35474;51.032;6.998;2023-01-09T16:07:47;8.06;77.39
52656;SHT85;35474;51.032;6.998;2023-01-09T16:10:29;8.02;77.68
52656;SHT85;35474;51.032;6.998;2023-01-09T16:12:59;7.98;77.95
52656;SHT85;35474;51.032;6.998;2023-01-09T16:15:27;7.99;78.13
52656;SHT85;35474;51.032;6.998;2023-01-09T16:20:43;7.86;78.46
52656;SHT85;35474;51.032;6.998;2023-01-09T16:23:18;7.81;78.46
52656;SHT85;35474;51.032;6.998;2023-01-09T16:26:05;7.82;78.45
52656;SHT85;35474;51.032;6.998;2023-01-09T16:28:36;7.89;78.26
52656;SHT85;35474;51.032;6.998;2023-01-09T16:31:06;7.85;78.43
52656;SHT85;35474;51.032;6.998;2023-01-09T16:33:47;7.82;78.32
52656;SHT85;35474;51.032;6.998;2023-01-09T16:36:17;7.91;78.19
52656;SHT85;35474;51.032;6.998;2023-01-09T16:38:44;7.92;78.42
52656;SHT85;35474;51.032;6.998;2023-01-09T16:41:15;7.89;78.88
52656;SHT85;35474;51.032;6.998;2023-01-09T16:44:05;7.98;78.70
52656;SHT85;35474;51.032;6.998;2023-01-09T16:46:35;7.86;79.08
52656;SHT85;35474;51.032;6.998;2023-01-09T16:49:17;7.86;79.24
52656;SHT85;35474;51.032;6.998;2023-01-09T16:51:46;7.79;79.65
52656;SHT85;35474;51.032;6.998;2023-01-09T16:54:13;7.81;79.74
52656;SHT85;35474;51.032;6.998;2023-01-09T16:56:40;7.81;80.11
52656;SHT85;35474;51.032;6.998;2023-01-09T16:59:12;7.75;80.29
52656;SHT85;35474;51.032;6.998;2023-01-09T17:01:40;7.78;79.87
52656;SHT85;35474;51.032;6.998;2023-01-09T17:04:10;7.71;79.87
52656;SHT85;35474;51.032;6.998;2023-01-09T17:06:40;7.65;80.15
52656;SHT85;35474;51.032;6.998;2023-01-09T17:09:11;7.70;79.97
52656;SHT85;35474;51.032;6.998;2023-01-09T17:11:40;7.60;80.08
52656;SHT85;35474;51.032;6.998;2023-01-09T17:14:15;7.60;79.79
52656;SHT85;35474;51.032;6.998;2023-01-09T17:16:41;7.64;79.86
52656;SHT85;35474;51.032;6.998;2023-01-09T17:19:12;7.57;79.68
52656;SHT85;35474;51.032;6.998;2023-01-09T17:21:44;7.53;79.38
52656;SHT85;35474;51.032;6.998;2023-01-09T17:24:11;7.53;79.49
52656;SHT85;35474;51.032;6.998;2023-01-09T17:26:59;7.53;79.58
52656;SHT85;35474;51.032;6.998;2023-01-09T17:29:45;7.55;79.30
52656;SHT85;35474;51.032;6.998;2023-01-09T17:32:16;7.57;79.23
52656;SHT85;35474;51.032;6.998;2023-01-09T17:34:48;7.64;79.08
52656;SHT85;35474;51.032;6.998;2023-01-09T17:37:15;7.57;79.13
52656;SHT85;35474;51.032;6.998;2023-01-09T17:39:43;7.61;79.20
52656;SHT85;35474;51.032;6.998;2023-01-09T17:42:10;7.61;79.22
52656;SHT85;35474;51.032;6.998;2023-01-09T17:44:37;7.51;79.37
52656;SHT85;35474;51.032;6.998;2023-01-09T17:47:03;7.48;79.48
52656;SHT85;35474;51.032;6.998;2023-01-09T17:49:31;7.53;79.47
52656;SHT85;35474;51.032;6.998;2023-01-09T17:51:57;7.50;79.28
52656;SHT85;35474;51.032;6.998;2023-01-09T17:54:24;7.40;79.62
52656;SHT85;35474;51.032;6.998;2023-01-09T17:56:50;7.35;79.79
52656;SHT85;35474;51.032;6.998;2023-01-09T17:59:17;7.33;79.82
52656;SHT85;35474;51.032;6.998;2023-01-09T18:01:44;7.37;79.99
52656;SHT85;35474;51.032;6.998;2023-01-09T18:04:10;7.39;79.76
52656;SHT85;35474;51.032;6.998;2023-01-09T18:06:37;7.30;80.15
52656;SHT85;35474;51.032;6.998;2023-01-09T18:09:04;7.31;79.98
52656;SHT85;35474;51.032;6.998;2023-01-09T18:11:31;7.28;80.00
52656;SHT85;35474;51.032;6.998;2023-01-09T18:13:58;7.33;79.97
52656;SHT85;35474;51.032;6.998;2023-01-09T18:16:25;7.28;80.14
52656;SHT85;35474;51.032;6.998;2023-01-09T18:18:55;7.27;80.31
52656;SHT85;35474;51.032;6.998;2023-01-09T18:21:23;7.24;80.39
52656;SHT85;35474;51.032;6.998;2023-01-09T18:23:51;7.26;80.48
52656;SHT85;35474;51.032;6.998;2023-01-09T18:26:18;7.20;80.76